createdAt,value
2023-06-25T00:17:00.964Z,14.5
2023-06-25T00:18:01.194Z,14.4
2023-06-25T00:22:00.985Z,14.6
2023-06-25T00:23:07.181Z,14.5
2023-06-25T00:24:00.982Z,14.6
2023-06-25T00:28:01.055Z,14.5
2023-06-25T00:30:01.195Z,14.6
2023-06-25T00:32:00.963Z,14.6
2023-06-25T00:33:00.989Z,14.5
2023-06-25T00:36:00.984Z,14.6
2023-06-25T00:38:00.990Z,14.6
2023-06-25T00:40:01.002Z,14.5
2023-06-25T00:42:00.952Z,14.6
2023-06-25T00:44:00.974Z,14.6
2023-06-25T00:46:01.035Z,14.7
2023-06-25T00:48:01.006Z,14.5
2023-06-25T00:51:00.960Z,14.6
2023-06-25T00:52:00.940Z,14.5
2023-06-25T00:56:01.013Z,14.6
2023-06-25T00:58:01.078Z,14.5
2023-06-25T01:00:01.008Z,14.5
2023-06-25T01:02:00.955Z,14.5
2023-06-25T01:04:01.029Z,14.3
2023-06-25T01:06:12.082Z,14.3
2023-06-25T01:08:01.048Z,14.4
2023-06-25T01:10:00.966Z,14.2
2023-06-25T01:12:01.003Z,14.4
2023-06-25T01:14:00.962Z,14.3
2023-06-25T01:15:00.967Z,14.4
2023-06-25T01:18:01.156Z,14.3
2023-06-25T01:20:01.022Z,14.1
2023-06-25T01:23:00.960Z,14.2
2023-06-25T01:25:00.948Z,14.1
2023-06-25T01:26:00.947Z,14
2023-06-25T01:27:01.089Z,14.1
2023-06-25T01:28:00.970Z,14
2023-06-25T01:31:00.976Z,13.9
2023-06-25T01:33:01.047Z,13.9
2023-06-25T01:36:00.968Z,13.8
2023-06-25T01:37:01.073Z,13.9
2023-06-25T01:39:00.958Z,14
2023-06-25T01:40:01.008Z,13.8
2023-06-25T01:41:00.977Z,14
2023-06-25T01:42:01.017Z,13.8
2023-06-25T01:46:00.964Z,14
2023-06-25T01:48:01.031Z,14
2023-06-25T01:51:00.970Z,14
2023-06-25T01:58:00.974Z,14
2023-06-25T01:59:00.994Z,13.9
2023-06-25T02:02:00.947Z,13.8
2023-06-25T02:05:00.999Z,13.9
2023-06-25T02:06:01.009Z,13.8
2023-06-25T02:08:00.966Z,13.8
2023-06-25T02:10:01.011Z,13.9
2023-06-25T02:12:00.987Z,13.8
2023-06-25T02:17:00.978Z,13.7
2023-06-25T02:18:01.101Z,13.8
2023-06-25T02:20:00.945Z,13.8
2023-06-25T02:21:00.980Z,13.7
2023-06-25T02:23:00.947Z,13.6
2023-06-25T02:26:00.962Z,13.7
2023-06-25T02:28:01.007Z,13.7
2023-06-25T02:33:01.076Z,13.6
2023-06-25T02:35:00.942Z,13.6
2023-06-25T02:40:01.057Z,13.5
2023-06-25T02:42:01.001Z,13.5
2023-06-25T02:44:00.979Z,13.7
2023-06-25T02:46:01.005Z,13.5
2023-06-25T02:47:00.977Z,13.7
2023-06-25T02:48:01.073Z,13.6
2023-06-25T02:53:00.952Z,13.6
2023-06-25T02:55:01.000Z,13.9
2023-06-25T02:57:00.989Z,13.7
2023-06-25T02:59:01.003Z,13.8
2023-06-25T03:01:01.038Z,13.7
2023-06-25T03:02:01.047Z,13.6
2023-06-25T03:03:01.103Z,13.8
2023-06-25T03:08:01.045Z,13.6
2023-06-25T03:09:00.993Z,13.7
2023-06-25T03:11:00.997Z,13.6
2023-06-25T03:13:01.004Z,13.7
2023-06-25T03:15:01.004Z,13.6
2023-06-25T03:18:01.144Z,13.6
2023-06-25T03:22:01.023Z,13.8
2023-06-25T03:26:00.969Z,13.6
2023-06-25T03:28:00.983Z,13.7
2023-06-25T03:29:00.966Z,13.8
2023-06-25T03:31:00.995Z,13.9
2023-06-25T03:33:01.074Z,13.9
2023-06-25T03:35:00.949Z,13.9
2023-06-25T03:37:01.004Z,14
2023-06-25T03:40:01.004Z,14.1
2023-06-25T03:42:01.073Z,14
2023-06-25T03:44:00.983Z,14.1
2023-06-25T03:46:00.989Z,14.2
2023-06-25T03:49:00.984Z,14.3
2023-06-25T03:50:01.016Z,14.2
2023-06-25T03:51:01.011Z,14.3
2023-06-25T03:55:00.978Z,14.6
2023-06-25T03:57:01.004Z,15
2023-06-25T03:58:01.006Z,15.3
2023-06-25T04:00:01.181Z,16.2
2023-06-25T04:02:01.051Z,17.2
2023-06-25T04:03:01.071Z,17.6
2023-06-25T04:05:01.033Z,18.6
2023-06-25T04:06:01.102Z,19.1
2023-06-25T04:08:01.087Z,20
2023-06-25T04:10:01.101Z,20.7
2023-06-25T04:12:01.173Z,21.3
2023-06-25T04:14:01.059Z,21.9
2023-06-25T04:16:01.044Z,22.5
2023-06-25T04:17:01.034Z,22.7
2023-06-25T04:18:01.200Z,23
2023-06-25T04:20:01.018Z,23.6
2023-06-25T04:22:01.079Z,23.8
2023-06-25T04:24:01.258Z,24.1
2023-06-25T04:26:01.052Z,24.5
2023-06-25T04:28:01.081Z,24.8
2023-06-25T04:29:01.119Z,25.1
2023-06-25T04:31:01.022Z,25.3
2023-06-25T04:32:01.035Z,25.5
2023-06-25T04:33:01.055Z,25.8
2023-06-25T04:34:01.159Z,26
2023-06-25T04:36:01.082Z,26.3
2023-06-25T04:37:01.133Z,26.6
2023-06-25T04:38:01.139Z,26.7
2023-06-25T04:39:01.354Z,26.9
2023-06-25T04:41:01.040Z,27.2
2023-06-25T04:42:01.105Z,27.3
2023-06-25T04:43:01.336Z,27.5
2023-06-25T04:45:01.282Z,27.8
2023-06-25T04:47:00.985Z,28.3
2023-06-25T04:49:01.032Z,28.5
2023-06-25T04:50:01.081Z,28.7
2023-06-25T04:52:01.012Z,28.9
2023-06-25T04:54:01.229Z,29
2023-06-25T04:57:01.011Z,29.3
2023-06-25T04:58:01.156Z,29.5
2023-06-25T05:00:01.088Z,29.8
2023-06-25T05:02:01.004Z,30.1
2023-06-25T05:05:01.270Z,30.2
2023-06-25T05:07:01.163Z,30.5
2023-06-25T05:09:01.493Z,30.6
2023-06-25T05:11:01.337Z,30.7
2023-06-25T05:12:01.080Z,30.8
2023-06-25T05:14:01.125Z,30.9
2023-06-25T05:16:01.243Z,31
2023-06-25T05:18:01.161Z,31.4
2023-06-25T05:20:01.023Z,31.5
2023-06-25T05:22:00.976Z,31.6
2023-06-25T05:24:01.012Z,31.7
2023-06-25T05:25:01.038Z,31.6
2023-06-25T05:26:01.062Z,31.7
2023-06-25T05:27:01.092Z,31.6
2023-06-25T05:29:01.069Z,31.5
2023-06-25T05:31:01.139Z,31.2
2023-06-25T05:33:01.021Z,31
2023-06-25T05:35:01.068Z,30.7
2023-06-25T05:37:01.079Z,30.3
2023-06-25T05:38:01.206Z,29.9
2023-06-25T05:40:01.032Z,29.6
2023-06-25T05:41:01.044Z,29.4
2023-06-25T05:43:01.042Z,28.8
2023-06-25T05:45:01.113Z,28.4
2023-06-25T05:47:01.079Z,27.6
2023-06-25T05:49:01.354Z,27
2023-06-25T05:51:01.232Z,26.2
2023-06-25T05:53:01.033Z,25.6
2023-06-25T05:54:01.020Z,25.3
2023-06-25T05:55:01.078Z,25.2
2023-06-25T05:57:01.052Z,24.8
2023-06-25T05:59:01.077Z,24.6
2023-06-25T06:03:01.166Z,24.5
2023-06-25T06:04:01.148Z,24.4
2023-06-25T06:06:01.007Z,24.4
2023-06-25T06:07:01.067Z,24.2
2023-06-25T06:09:01.169Z,24
2023-06-25T06:11:01.020Z,24
2023-06-25T06:13:01.070Z,24.2
2023-06-25T06:15:01.230Z,24.3
2023-06-25T06:17:01.195Z,24.2
2023-06-25T06:19:01.114Z,24.4
2023-06-25T06:22:01.014Z,24.7
2023-06-25T06:23:01.028Z,24.6
2023-06-25T06:25:01.098Z,24.8
2023-06-25T06:26:01.071Z,24.7
2023-06-25T06:27:01.078Z,24.8
2023-06-25T06:28:01.179Z,25
2023-06-25T06:31:01.042Z,24.9
2023-06-25T06:32:01.039Z,25
2023-06-25T06:34:01.082Z,25.1
2023-06-25T06:37:03.096Z,25.3
2023-06-25T06:39:01.060Z,25.1
2023-06-25T06:42:00.995Z,25.1
2023-06-25T06:43:01.002Z,25.2
2023-06-25T06:45:01.058Z,25.1
2023-06-25T06:47:01.021Z,25.3
2023-06-25T06:49:01.211Z,25.3
2023-06-25T06:55:01.058Z,25
2023-06-25T06:56:01.136Z,24.8
2023-06-25T06:58:00.959Z,24.5
2023-06-25T06:59:00.997Z,24.4
2023-06-25T07:01:01.076Z,24.2
2023-06-25T07:03:01.075Z,24
2023-06-25T07:05:01.087Z,23.8
2023-06-25T07:09:01.130Z,23.8
2023-06-25T07:11:00.991Z,23.7
2023-06-25T07:12:01.020Z,23.8
2023-06-25T07:14:01.005Z,23.9
2023-06-25T07:15:01.025Z,23.7
2023-06-25T07:19:01.044Z,24.1
2023-06-25T07:20:01.129Z,24
2023-06-25T07:23:01.020Z,24.1
2023-06-25T07:25:01.052Z,23.9
2023-06-25T07:27:01.118Z,23.8
2023-06-25T07:29:01.035Z,23.8
2023-06-25T07:31:01.065Z,23.7
2023-06-25T07:33:01.041Z,23.9
2023-06-25T07:37:01.078Z,23.6
2023-06-25T07:39:01.027Z,23.6
2023-06-25T07:41:01.041Z,23.8
2023-06-25T07:43:01.089Z,23.7
2023-06-25T07:45:01.068Z,23.8
2023-06-25T07:47:01.025Z,23.7
2023-06-25T07:49:01.075Z,23.8
2023-06-25T07:52:00.981Z,23.9
2023-06-25T07:53:01.021Z,23.8
2023-06-25T07:55:01.106Z,23.9
2023-06-25T07:57:01.045Z,23.9
2023-06-25T07:58:01.009Z,23.8
2023-06-25T07:59:01.017Z,24
2023-06-25T08:00:01.094Z,23.9
2023-06-25T08:01:01.236Z,24
2023-06-25T08:03:01.253Z,24
2023-06-25T08:06:01.015Z,24.3
2023-06-25T08:08:00.993Z,24.2
2023-06-25T08:09:01.042Z,24.4
2023-06-25T08:11:01.071Z,24.5
2023-06-25T08:12:01.086Z,24.4
2023-06-25T08:15:01.235Z,24.2
2023-06-25T08:18:01.023Z,24.1
2023-06-25T08:19:01.009Z,24.2
2023-06-25T08:22:00.978Z,24.3
2023-06-25T08:23:01.069Z,24.2
2023-06-25T08:25:01.077Z,24.1
2023-06-25T08:27:01.046Z,24.4
2023-06-25T08:29:01.034Z,24.6
2023-06-25T08:31:01.104Z,24.7
2023-06-25T08:33:01.104Z,24.7
2023-06-25T08:35:01.106Z,24.7
2023-06-25T08:37:01.022Z,24.5
2023-06-25T08:40:01.048Z,24.8
2023-06-25T08:41:01.018Z,24.7
2023-06-25T08:43:01.028Z,24.9
2023-06-25T08:45:01.051Z,25
2023-06-25T08:47:01.110Z,24.9
2023-06-25T08:49:01.038Z,25
2023-06-25T08:51:01.026Z,24.7
2023-06-25T08:55:01.049Z,24.7
2023-06-25T08:57:01.007Z,24.5
2023-06-25T08:59:01.053Z,24.6
2023-06-25T09:01:01.124Z,24.5
2023-06-25T09:03:01.250Z,24.7
2023-06-25T09:05:01.030Z,24.6
2023-06-25T09:06:01.145Z,24.8
2023-06-25T09:08:00.962Z,24.8
2023-06-25T09:10:00.950Z,24.9
2023-06-25T09:11:01.049Z,24.7
2023-06-25T09:13:01.006Z,24.8
2023-06-25T09:15:01.002Z,24.7
2023-06-25T09:20:00.944Z,24.8
2023-06-25T09:21:01.117Z,24.9
2023-06-25T09:24:00.957Z,24.7
2023-06-25T09:25:01.020Z,24.8
2023-06-25T09:27:01.006Z,24.9
2023-06-25T09:29:01.232Z,25.1
2023-06-25T09:31:01.053Z,25.5
2023-06-25T09:33:01.010Z,25.7
2023-06-25T09:35:01.025Z,25.5
2023-06-25T09:41:01.004Z,25.5
2023-06-25T09:44:01.019Z,25.2
2023-06-25T09:45:01.010Z,25.3
2023-06-25T09:47:01.028Z,25.4
2023-06-25T09:49:00.995Z,25.5
2023-06-25T09:53:01.010Z,25.7
2023-06-25T09:56:00.985Z,25.9
2023-06-25T09:57:01.019Z,26
2023-06-25T09:59:01.006Z,25.9
2023-06-25T10:01:01.060Z,26.1
2023-06-25T10:03:01.129Z,25.8
2023-06-25T10:05:01.049Z,25.7
2023-06-25T10:07:01.053Z,25.6
2023-06-25T10:09:01.039Z,25.7
2023-06-25T10:10:01.032Z,25.9
2023-06-25T10:11:01.068Z,25.7
2023-06-25T10:16:00.973Z,26.1
2023-06-25T10:17:01.019Z,26
2023-06-25T10:19:01.072Z,26.1
2023-06-25T10:28:00.971Z,26.2
2023-06-25T10:29:01.048Z,26.4
2023-06-25T10:31:01.162Z,26.7
2023-06-25T10:32:01.078Z,26.9
2023-06-25T10:35:01.008Z,26.9
2023-06-25T10:37:01.033Z,26.8
2023-06-25T10:38:01.037Z,26.7
2023-06-25T10:40:01.017Z,26.6
2023-06-25T10:41:01.038Z,26.5
2023-06-25T10:43:01.039Z,26.7
2023-06-25T10:46:01.151Z,26.9
2023-06-25T10:48:01.006Z,26.8
2023-06-25T10:50:00.970Z,26.9
2023-06-25T10:51:01.008Z,26.8
2023-06-25T10:53:01.177Z,26.7
2023-06-25T10:58:00.959Z,27
2023-06-25T11:00:01.007Z,26.9
2023-06-25T11:01:01.115Z,27.2
2023-06-25T11:04:01.041Z,27.1
2023-06-25T11:07:01.040Z,26.9
2023-06-25T11:09:01.049Z,26.9
2023-06-25T11:11:01.045Z,27.1
2023-06-25T11:14:00.955Z,27.6
2023-06-25T11:15:01.041Z,27.7
2023-06-25T11:20:00.966Z,27.3
2023-06-25T11:21:01.178Z,27.4
2023-06-25T11:24:00.959Z,27.2
2023-06-25T11:25:01.020Z,27.3
2023-06-25T11:27:01.058Z,27.4
2023-06-25T11:29:01.020Z,27.5
2023-06-25T11:31:01.011Z,27.3
2023-06-25T11:32:01.020Z,27.4
2023-06-25T11:35:01.063Z,27.2
2023-06-25T11:38:00.985Z,27.3
2023-06-25T11:41:01.045Z,27.4
2023-06-25T11:42:01.063Z,27.3
2023-06-25T11:45:01.051Z,27.2
2023-06-25T11:48:01.196Z,27.2
2023-06-25T11:49:01.052Z,27.3
2023-06-25T11:51:01.009Z,27.2
2023-06-25T11:53:01.070Z,27.4
2023-06-25T11:54:01.106Z,27.2
2023-06-25T11:57:01.118Z,27.7
2023-06-25T11:59:01.007Z,27.7
2023-06-25T12:00:01.028Z,27.6
2023-06-25T12:02:01.006Z,27.5
2023-06-25T12:04:01.022Z,27.4
2023-06-25T12:05:01.060Z,27.2
2023-06-25T12:08:00.983Z,27
2023-06-25T12:09:01.056Z,26.8
2023-06-25T12:13:01.034Z,26.7
2023-06-25T12:15:01.122Z,26.7
2023-06-25T12:17:01.038Z,26.9
2023-06-25T12:19:01.010Z,27
2023-06-25T12:21:01.001Z,27.1
2023-06-25T12:23:01.071Z,26.9
2023-06-25T12:26:00.992Z,26.7
2023-06-25T12:27:01.025Z,26.6
2023-06-25T12:29:01.018Z,26.3
2023-06-25T12:30:01.088Z,26.4
2023-06-25T12:34:00.995Z,26.1
2023-06-25T12:35:01.064Z,26
2023-06-25T12:37:01.079Z,26
2023-06-25T12:40:01.088Z,26.1
2023-06-25T12:43:01.047Z,26.3
2023-06-25T12:44:01.159Z,26.6
2023-06-25T12:45:01.081Z,26.7
2023-06-25T12:47:01.069Z,27
2023-06-25T12:49:01.059Z,27.4
2023-06-25T12:51:01.048Z,27.5
2023-06-25T12:52:01.035Z,27.8
2023-06-25T12:54:00.978Z,27.6
2023-06-25T12:55:01.102Z,27.8
2023-06-25T12:58:00.996Z,27.8
2023-06-25T13:00:01.190Z,27.7
2023-06-25T13:02:01.094Z,27.6
2023-06-25T13:03:01.066Z,27.4
2023-06-25T13:05:01.047Z,27.3
2023-06-25T13:07:01.047Z,27.4
2023-06-25T13:08:01.026Z,27.5
2023-06-25T13:10:00.956Z,27.4
2023-06-25T13:11:01.004Z,27.5
2023-06-25T13:14:00.969Z,27.2
2023-06-25T13:15:01.039Z,27.3
2023-06-25T13:18:01.161Z,26.8
2023-06-25T13:22:01.082Z,26.9
2023-06-25T13:23:01.041Z,27
2023-06-25T13:25:01.024Z,27.2
2023-06-25T13:27:01.088Z,27.4
2023-06-25T13:30:01.077Z,27.3
2023-06-25T13:31:01.128Z,27.2
2023-06-25T13:35:01.125Z,27
2023-06-25T13:38:01.028Z,27.1
2023-06-25T13:39:01.026Z,27
2023-06-25T13:41:01.337Z,26.9
2023-06-25T13:43:01.080Z,27.1
2023-06-25T13:45:01.139Z,27.2
2023-06-25T13:47:01.068Z,27.2
2023-06-25T13:52:01.004Z,26.9
2023-06-25T13:54:00.946Z,26.8
2023-06-25T13:56:00.994Z,26.7
2023-06-25T13:59:01.137Z,26.5
2023-06-25T14:00:01.307Z,26.4
2023-06-25T14:02:00.968Z,26.8
2023-06-25T14:03:11.594Z,26.9
2023-06-25T14:05:01.055Z,27
2023-06-25T14:07:01.091Z,27.2
2023-06-25T14:09:00.997Z,27.1
2023-06-25T14:10:01.038Z,27.3
2023-06-25T14:11:01.102Z,27.2
2023-06-25T14:13:01.009Z,27.4
2023-06-25T14:14:01.170Z,27.5
2023-06-25T14:17:01.075Z,27.7
2023-06-25T14:19:01.035Z,27.6
2023-06-25T14:20:01.229Z,27.5
2023-06-25T14:22:01.045Z,27.5
2023-06-25T14:28:01.236Z,27.4
2023-06-25T14:32:01.142Z,27.5
2023-06-25T14:33:01.252Z,27.6
2023-06-25T14:34:01.117Z,27.7
2023-06-25T14:36:01.105Z,27.7
2023-06-25T14:37:01.266Z,27.6
2023-06-25T14:41:01.257Z,27.7
2023-06-25T14:43:01.077Z,27.5
2023-06-25T14:44:01.143Z,27.6
2023-06-25T14:45:01.256Z,27.9
2023-06-25T14:48:01.285Z,27.9
2023-06-25T14:50:01.111Z,27.6
2023-06-25T14:52:01.044Z,27.4
2023-06-25T14:53:01.097Z,27.5
2023-06-25T14:55:01.166Z,27.6
2023-06-25T14:58:00.989Z,27.9
2023-06-25T14:59:01.021Z,28
2023-06-25T15:00:01.099Z,27.8
2023-06-25T15:02:01.129Z,27.9
2023-06-25T15:05:01.189Z,27.8
2023-06-25T15:07:01.185Z,28
2023-06-25T15:08:01.134Z,27.8
2023-06-25T15:11:01.021Z,27.9
2023-06-25T15:13:01.051Z,27.7
2023-06-25T15:14:01.091Z,27.9
2023-06-25T15:17:01.035Z,27.7
2023-06-25T15:18:01.088Z,27.6
2023-06-25T15:20:01.048Z,27.8
2023-06-25T15:22:01.021Z,27.9
2023-06-25T15:23:01.025Z,28
2023-06-25T15:25:01.011Z,28.2
2023-06-25T15:27:01.044Z,28
2023-06-25T15:29:01.017Z,28.2
2023-06-25T15:31:01.116Z,28
2023-06-25T15:35:01.015Z,27.7
2023-06-25T15:37:01.061Z,27.8
2023-06-25T15:38:01.025Z,27.7
2023-06-25T15:41:01.024Z,27.6
2023-06-25T15:42:01.103Z,27.7
2023-06-25T15:44:01.054Z,27.6
2023-06-25T15:45:01.049Z,27.4
2023-06-25T15:47:01.031Z,27.3
2023-06-25T15:48:01.046Z,27.4
2023-06-25T15:49:01.067Z,27.3
2023-06-25T15:51:01.015Z,27.2
2023-06-25T15:56:01.005Z,27.3
2023-06-25T15:59:01.048Z,27.2
2023-06-25T16:00:01.107Z,27.3
2023-06-25T16:02:00.977Z,27
2023-06-25T16:03:01.114Z,27.2
2023-06-25T16:05:01.012Z,27.1
2023-06-25T16:07:01.103Z,27.2
2023-06-25T16:09:01.034Z,27.2
2023-06-25T16:12:01.087Z,27.3
2023-06-25T16:15:01.176Z,27.1
2023-06-25T16:17:01.029Z,27.2
2023-06-25T16:19:20.862Z,26.9
2023-06-25T16:21:02.073Z,27.1
2023-06-25T16:23:01.176Z,26.8
2023-06-25T16:26:00.969Z,26.7
2023-06-25T16:28:01.001Z,26.9
2023-06-25T16:29:01.010Z,26.8
2023-06-25T16:31:01.061Z,26.9
2023-06-25T16:33:01.020Z,26.7
2023-06-25T16:35:01.006Z,26.8
2023-06-25T16:37:01.063Z,26.6
2023-06-25T16:39:01.012Z,26.6
2023-06-25T16:41:00.994Z,26.8
2023-06-25T16:42:01.057Z,26.6
2023-06-25T16:46:00.973Z,26.6
2023-06-25T16:47:01.180Z,26.8
2023-06-25T16:49:01.059Z,26.6
2023-06-25T16:51:01.050Z,26.5
2023-06-25T16:54:00.962Z,26.4
2023-06-25T16:56:00.982Z,26.6
2023-06-25T16:57:01.073Z,26.5
2023-06-25T17:00:01.181Z,26.4
2023-06-25T17:04:01.063Z,26.5
2023-06-25T17:05:01.002Z,26.3
2023-06-25T17:07:01.061Z,26.4
2023-06-25T17:09:00.993Z,26.2
2023-06-25T17:12:00.984Z,26.1
2023-06-25T17:14:00.972Z,26.2
2023-06-25T17:15:01.024Z,26
2023-06-25T17:17:01.019Z,26.2
2023-06-25T17:19:01.034Z,26
2023-06-25T17:22:01.015Z,25.8
2023-06-25T17:23:01.070Z,25.7
2023-06-25T17:24:01.076Z,25.8
2023-06-25T17:27:01.032Z,25.6
2023-06-25T17:28:01.009Z,25.8
2023-06-25T17:29:01.074Z,25.7
2023-06-25T17:31:01.015Z,25.8
2023-06-25T17:36:00.969Z,25.6
2023-06-25T17:37:01.086Z,25.5
2023-06-25T17:39:01.027Z,25.5
2023-06-25T17:43:01.034Z,25.4
2023-06-25T17:46:00.996Z,25.5
2023-06-25T17:48:01.000Z,25.4
2023-06-25T17:52:01.054Z,25.2
2023-06-25T17:53:01.038Z,25.4
2023-06-25T17:55:01.007Z,25.3
2023-06-25T17:58:01.103Z,25.2
2023-06-25T18:01:01.143Z,25.2
2023-06-25T18:03:01.352Z,25.3
2023-06-25T18:05:01.983Z,25.2
2023-06-25T18:08:01.015Z,25.1
2023-06-25T18:10:00.981Z,25.2
2023-06-25T18:11:01.040Z,25
2023-06-25T18:13:01.092Z,24.9
2023-06-25T18:15:01.282Z,24.8
2023-06-25T18:18:01.165Z,24.9
2023-06-25T18:23:01.074Z,24.8
2023-06-25T18:28:01.005Z,24.5
2023-06-25T18:29:01.044Z,24.6
2023-06-25T18:31:01.224Z,24.5
2023-06-25T18:33:01.175Z,24.5
2023-06-25T18:37:01.036Z,24.3
2023-06-25T18:39:01.029Z,24.3
2023-06-25T18:41:01.103Z,24.3
2023-06-25T18:43:01.081Z,24.2
2023-06-25T18:49:02.271Z,23.9
2023-06-25T18:51:01.042Z,23.8
2023-06-25T18:55:01.043Z,23.8
2023-06-25T18:56:01.042Z,23.7
2023-06-25T18:58:01.000Z,23.8
2023-06-25T18:59:01.059Z,23.6
2023-06-25T19:00:01.148Z,23.7
2023-06-25T19:01:01.221Z,23.5
2023-06-25T19:03:01.267Z,23.5
2023-06-25T19:06:01.094Z,23.3
2023-06-25T19:08:00.999Z,23.4
2023-06-25T19:10:01.012Z,23.3
2023-06-25T19:13:01.055Z,23.4
2023-06-25T19:18:01.030Z,23.1
2023-06-25T19:19:01.060Z,23.2
2023-06-25T19:24:01.034Z,22.9
2023-06-25T19:29:01.049Z,23
2023-06-25T19:33:01.032Z,22.5
2023-06-25T19:34:01.034Z,22.8
2023-06-25T19:35:01.072Z,22.7
2023-06-25T19:36:01.125Z,22.6
2023-06-25T19:38:01.026Z,22.6
2023-06-25T19:39:01.032Z,22.5
2023-06-25T19:41:01.061Z,22.5
2023-06-25T19:43:01.035Z,22.4
2023-06-25T19:47:01.147Z,22.3
2023-06-25T19:51:01.068Z,22.2
2023-06-25T19:53:01.032Z,22.1
2023-06-25T19:55:01.097Z,22.2
2023-06-25T19:57:01.018Z,22
2023-06-25T20:00:01.117Z,21.9
2023-06-25T20:03:00.976Z,21.8
2023-06-25T20:07:00.959Z,21.7
2023-06-25T20:11:00.994Z,21.8
2023-06-25T20:12:00.960Z,21.6
2023-06-25T20:15:01.115Z,21.4
2023-06-25T20:17:00.959Z,21.5
2023-06-25T20:18:00.993Z,21.4
2023-06-25T20:20:00.982Z,21.4
2023-06-25T20:23:00.956Z,21.3
2023-06-25T20:24:00.982Z,21.1
2023-06-25T20:25:00.993Z,21.3
2023-06-25T20:30:01.355Z,21.3
2023-06-25T20:36:01.034Z,21.2
2023-06-25T20:39:01.006Z,20.9
2023-06-25T20:47:01.022Z,20.8
2023-06-25T20:49:00.942Z,20.9
2023-06-25T20:50:00.998Z,20.7
2023-06-25T20:52:01.015Z,20.7
2023-06-25T20:55:00.959Z,20.6
2023-06-25T20:58:00.978Z,20.5
2023-06-25T21:00:01.098Z,20.6
2023-06-25T21:03:01.066Z,20.4
2023-06-25T21:11:01.018Z,20.3
2023-06-25T21:15:01.127Z,20.2
2023-06-25T21:18:01.026Z,20.1
2023-06-25T21:20:00.982Z,20.1
2023-06-25T21:21:00.987Z,20
2023-06-25T21:22:01.017Z,20.2
2023-06-25T21:26:01.062Z,19.9
2023-06-25T21:27:01.050Z,20
2023-06-25T21:29:00.963Z,20
2023-06-25T21:31:00.984Z,19.9
2023-06-25T21:33:01.012Z,19.8
2023-06-25T21:34:01.054Z,19.9
2023-06-25T21:38:00.970Z,19.9
2023-06-25T21:39:00.983Z,19.7
2023-06-25T21:45:01.042Z,19.6
2023-06-25T21:46:01.017Z,19.7
2023-06-25T21:47:01.067Z,19.6
2023-06-25T21:51:00.987Z,19.5
2023-06-25T21:52:01.120Z,19.6
2023-06-25T21:54:00.964Z,19.7
2023-06-25T21:57:00.987Z,19.7
2023-06-25T21:59:00.955Z,19.5
2023-06-25T22:01:00.997Z,19.6
2023-06-25T22:02:01.006Z,19.4
2023-06-25T22:04:01.013Z,19.5
2023-06-25T22:06:01.002Z,19.4
2023-06-25T22:10:01.016Z,19.4
2023-06-25T22:12:01.009Z,19.4
2023-06-25T22:14:00.972Z,19.4
2023-06-25T22:15:01.112Z,19.6
2023-06-25T22:17:00.998Z,19.5
2023-06-25T22:19:00.932Z,19.6
2023-06-25T22:20:00.956Z,19.5
2023-06-25T22:23:00.976Z,19.5
2023-06-25T22:24:00.962Z,19.6
2023-06-25T22:26:00.963Z,19.5
2023-06-25T22:28:00.966Z,19.4
2023-06-25T22:30:01.088Z,19.3
2023-06-25T22:32:01.042Z,19.4
2023-06-25T22:36:00.961Z,19.3
2023-06-25T22:38:00.955Z,19.3
2023-06-25T22:39:00.981Z,19.4
2023-06-25T22:40:00.993Z,19.2
2023-06-25T22:42:00.973Z,19.3
2023-06-25T22:44:00.969Z,19.2
2023-06-25T22:45:01.060Z,19.3
2023-06-25T22:49:00.991Z,19.2
2023-06-25T22:52:01.025Z,19.1
2023-06-25T22:56:03.037Z,19.1
2023-06-25T22:59:00.929Z,19.3
2023-06-25T23:00:01.006Z,19.2
2023-06-25T23:02:01.067Z,19.1
2023-06-25T23:03:01.027Z,19.2
2023-06-25T23:05:00.947Z,19.3
2023-06-25T23:06:00.964Z,19.2
2023-06-25T23:08:00.968Z,19.2
2023-06-25T23:09:00.986Z,19.1
2023-06-25T23:11:00.977Z,19.1
2023-06-25T23:12:00.989Z,19.2
2023-06-25T23:14:00.959Z,19.3
2023-06-25T23:15:00.960Z,19.1
2023-06-25T23:17:00.950Z,19.2
2023-06-25T23:19:00.962Z,19.1
2023-06-25T23:27:00.963Z,19
2023-06-25T23:28:00.961Z,19.1
2023-06-25T23:30:01.076Z,19.2
2023-06-25T23:34:00.991Z,19
2023-06-25T23:36:00.964Z,19.1
2023-06-25T23:38:00.990Z,19.1
2023-06-25T23:39:00.968Z,19
2023-06-25T23:44:00.960Z,18.9
2023-06-25T23:54:01.044Z,18.8
2023-06-25T23:56:00.956Z,18.9
2023-06-25T23:57:01.178Z,18.8
2023-06-25T23:59:00.951Z,18.9
